Time;durP1;ratioP1;P1;durP2;ratioP2;P2;SDS_P1;SDS_P2;PMS_P1;PMS_P2;Temp;Humidity;BMP_temperature;BMP_pressure;BME280_temperature;BME280_humidity;BME280_pressure;Samples;Min_cycle;Max_cycle;Signal;HPM_P1;HPM_P2
2022/03/08 00:00:08;;;;;;;8.10;5.85;;;1.90;1.00;;;;;;5031965;28;20225;-92
2022/03/08 00:02:45;;;;;;;8.80;6.40;;;1.90;1.00;;;;;;5049069;28;20699;-91
2022/03/08 00:05:34;;;;;;;9.30;8.40;;;1.80;1.00;;;;;;5052964;28;20221;-92
2022/03/08 00:08:25;;;;;;;11.73;7.00;;;1.80;1.00;;;;;;5032375;28;20820;-90
2022/03/08 00:14:36;;;;;;;9.15;6.80;;;1.80;1.00;;;;;;5047035;28;20240;-90
2022/03/08 00:17:19;;;;;;;9.98;7.00;;;1.80;1.00;;;;;;5016475;28;20262;-90
2022/03/08 00:31:08;;;;;;;10.10;7.47;;;1.70;1.00;;;;;;4877390;28;20224;-91
2022/03/08 00:34:07;;;;;;;11.35;6.60;;;1.70;1.00;;;;;;4960002;28;20224;-90
2022/03/08 00:36:46;;;;;;;10.73;7.40;;;1.60;1.00;;;;;;4946943;28;20288;-90
2022/03/08 00:39:21;;;;;;;10.98;7.68;;;1.50;1.00;;;;;;4957957;28;20229;-89
2022/03/08 00:41:56;;;;;;;7.68;6.95;;;1.50;1.00;;;;;;5041786;28;20263;-90
2022/03/08 00:44:32;;;;;;;8.35;7.10;;;1.50;1.00;;;;;;5018787;28;20470;-91
2022/03/08 00:47:28;;;;;;;9.10;6.90;;;1.50;1.00;;;;;;5040094;28;20230;-89
2022/03/08 00:50:25;;;;;;;;;;;;;;;;;;;;;
2022/03/08 00:53:19;;;;;;;21.02;9.25;;;1.50;1.00;;;;;;5020381;28;21023;-91
2022/03/08 01:07:01;;;;;;;12.65;9.43;;;1.40;1.00;;;;;;1323243;26;20231;-90
2022/03/08 01:09:46;;;;;;;12.65;8.70;;;1.30;1.00;;;;;;5027430;28;20256;-91
2022/03/08 01:12:33;;;;;;;12.93;8.40;;;1.30;1.00;;;;;;5023406;28;21257;-90
2022/03/08 05:00:36;;;;;;;13.63;7.30;;;0.00;1.00;;;;;;6008678;23;20311;-90
2022/03/08 06:40:01;;;;;;;10.75;7.05;;;0.60;1.00;;;;;;6334909;22;21090;-82
2022/03/08 09:53:39;;;;;;;6.70;5.20;;;18.60;1.00;;;;;;6327105;22;20378;-84
2022/03/08 09:56:13;;;;;;;5.97;4.90;;;19.20;1.00;;;;;;6356790;22;20413;-83
2022/03/08 09:58:49;;;;;;;6.13;4.90;;;19.60;1.00;;;;;;6360949;22;20467;-83
2022/03/08 10:01:21;;;;;;;7.53;5.57;;;20.30;1.00;;;;;;6355643;22;20439;-82
2022/03/08 10:04:03;;;;;;;5.63;5.13;;;20.70;1.00;;;;;;6348895;22;20516;-83
2022/03/08 10:06:46;;;;;;;5.10;4.07;;;20.40;1.00;;;;;;6343814;22;20397;-84
2022/03/08 10:09:21;;;;;;;5.40;4.10;;;20.50;1.00;;;;;;6343810;22;20402;-84
2022/03/08 10:11:52;;;;;;;7.30;4.40;;;21.60;1.00;;;;;;6345573;22;20440;-83
2022/03/08 10:14:32;;;;;;;4.93;4.40;;;22.00;1.00;;;;;;6343313;22;20482;-84
2022/03/08 10:17:03;;;;;;;4.30;3.90;;;21.90;1.00;;;;;;6341550;22;20382;-83
2022/03/08 10:23:03;;;;;;;5.40;4.37;;;20.70;1.00;;;;;;6334663;22;20425;-87
2022/03/08 10:25:32;;;;;;;7.67;5.83;;;20.10;1.00;;;;;;6344528;22;20390;-86
2022/03/08 10:28:06;;;;;;;6.70;4.00;;;20.10;1.00;;;;;;6342157;22;20521;-81
2022/03/08 10:30:50;;;;;;;33.10;29.03;;;20.40;1.00;;;;;;6336717;22;20384;-79
2022/03/08 10:33:19;;;;;;;4.97;4.27;;;20.30;1.00;;;;;;6336991;22;20945;-80
2022/03/08 10:35:48;;;;;;;5.27;4.57;;;20.50;1.00;;;;;;6347775;22;20385;-80
2022/03/08 10:38:15;;;;;;;7.03;4.10;;;20.90;1.00;;;;;;6336749;22;20366;-80
2022/03/08 10:40:44;;;;;;;6.93;4.10;;;21.80;1.00;;;;;;6334689;22;20366;-78
2022/03/08 10:43:13;;;;;;;3.73;3.40;;;22.00;1.00;;;;;;6335977;22;21313;-78
2022/03/08 10:45:44;;;;;;;5.47;4.87;;;22.10;1.00;;;;;;6340329;22;20479;-80
2022/03/08 10:48:14;;;;;;;5.77;5.10;;;22.80;1.00;;;;;;6336121;22;20404;-80
2022/03/08 10:50:43;;;;;;;5.30;4.40;;;23.80;1.00;;;;;;6334480;22;20505;-80
2022/03/08 10:53:13;;;;;;;6.20;4.20;;;24.40;1.00;;;;;;6335010;22;20446;-81
2022/03/08 10:55:48;;;;;;;4.47;4.07;;;24.20;1.00;;;;;;6336959;22;20390;-79
2022/03/08 10:58:16;;;;;;;5.43;4.60;;;23.50;1.00;;;;;;6336803;22;20978;-81
2022/03/08 11:00:45;;;;;;;5.50;4.60;;;23.60;1.00;;;;;;6339149;22;20401;-79
2022/03/08 11:03:14;;;;;;;4.90;4.27;;;23.90;1.00;;;;;;6346200;22;20437;-78
2022/03/08 11:05:44;;;;;;;4.43;4.00;;;24.40;1.00;;;;;;6333249;22;20420;-78
2022/03/08 11:08:12;;;;;;;5.40;3.93;;;24.60;1.00;;;;;;6337741;22;20473;-79
2022/03/08 11:10:40;;;;;;;4.57;4.17;;;24.30;1.00;;;;;;6341502;22;20932;-80
2022/03/08 11:13:09;;;;;;;6.47;5.97;;;24.50;1.00;;;;;;6338445;22;20803;-79
2022/03/08 11:15:38;;;;;;;4.73;4.03;;;24.80;1.00;;;;;;6340766;22;21136;-78
2022/03/08 11:18:08;;;;;;;5.83;5.33;;;25.00;1.00;;;;;;6335024;22;20412;-82
2022/03/08 11:20:37;;;;;;;4.20;3.60;;;24.70;1.00;;;;;;6336373;22;20358;-81
2022/03/08 11:23:05;;;;;;;5.47;3.93;;;24.90;1.00;;;;;;6336452;22;20912;-78
2022/03/08 11:25:41;;;;;;;4.63;3.67;;;25.10;1.00;;;;;;6334800;22;20374;-78
2022/03/08 11:28:09;;;;;;;6.37;4.77;;;25.60;1.00;;;;;;6344704;22;20436;-81
2022/03/08 11:30:41;;;;;;;4.13;3.73;;;25.70;1.00;;;;;;6330779;22;20425;-78
2022/03/08 11:33:15;;;;;;;4.37;3.97;;;25.70;1.00;;;;;;6338323;22;20900;-81
2022/03/08 11:35:52;;;;;;;6.67;4.17;;;26.20;1.00;;;;;;6334517;22;20465;-78
2022/03/08 11:38:18;;;;;;;4.90;3.90;;;26.80;1.00;;;;;;6335330;22;20427;-80
2022/03/08 11:40:50;;;;;;;3.93;3.30;;;27.20;1.00;;;;;;6333710;22;20400;-84
2022/03/08 11:43:18;;;;;;;4.00;3.60;;;27.60;1.00;;;;;;6334565;22;20374;-78
2022/03/08 11:45:53;;;;;;;4.80;4.10;;;27.70;1.00;;;;;;6334645;22;20400;-84
2022/03/08 11:48:23;;;;;;;6.90;3.50;;;27.70;1.00;;;;;;6339632;22;20404;-78
2022/03/08 11:50:50;;;;;;;4.30;3.30;;;28.00;1.00;;;;;;6335702;22;20386;-79
2022/03/08 11:53:24;;;;;;;5.10;3.90;;;28.00;1.00;;;;;;6337943;22;20406;-84
2022/03/08 11:55:55;;;;;;;4.83;3.83;;;27.80;1.00;;;;;;6337208;22;20460;-83
2022/03/08 11:58:41;;;;;;;4.10;3.53;;;27.40;1.00;;;;;;6340127;22;20385;-79
2022/03/08 12:01:21;;;;;;;5.00;3.50;;;27.30;1.00;;;;;;6335699;22;20911;-76
2022/03/08 12:03:54;;;;;;;4.63;3.40;;;27.30;1.00;;;;;;6339908;22;20413;-79
2022/03/08 12:06:35;;;;;;;6.20;4.30;;;27.70;1.00;;;;;;6343877;22;20398;-81
2022/03/08 12:09:10;;;;;;;8.87;4.10;;;27.80;1.00;;;;;;6335339;22;20373;-78
2022/03/08 12:11:39;;;;;;;4.90;3.77;;;27.70;1.00;;;;;;6336055;22;20917;-76
2022/03/08 12:14:22;;;;;;;4.80;3.40;;;27.60;1.00;;;;;;6328510;22;20382;-76
2022/03/08 12:16:50;;;;;;;4.00;2.90;;;27.50;1.00;;;;;;6331079;22;20444;-78
2022/03/08 12:19:30;;;;;;;4.30;3.60;;;27.30;1.00;;;;;;6334061;22;20393;-80
2022/03/08 12:21:57;;;;;;;3.93;3.23;;;27.00;1.00;;;;;;6334389;22;20389;-78
2022/03/08 12:24:24;;;;;;;4.83;3.53;;;26.70;1.00;;;;;;6335946;22;21017;-78
2022/03/08 12:27:05;;;;;;;5.60;3.50;;;26.90;1.00;;;;;;6335718;22;20397;-77
2022/03/08 12:29:54;;;;;;;4.10;3.50;;;27.40;1.00;;;;;;6347586;22;20439;-84
2022/03/08 12:32:39;;;;;;;4.50;3.37;;;27.50;1.00;;;;;;6356630;22;20386;-80
2022/03/08 12:35:14;;;;;;;4.43;3.20;;;27.70;1.00;;;;;;6321219;22;20433;-77
2022/03/08 12:37:55;;;;;;;6.70;3.70;;;28.10;1.00;;;;;;6326439;22;20457;-78
2022/03/08 12:40:27;;;;;;;18.67;12.10;;;28.50;1.00;;;;;;6316855;22;20480;-76
2022/03/08 12:42:56;;;;;;;6.17;5.63;;;28.90;1.00;;;;;;6320613;22;20364;-79
2022/03/08 12:45:28;;;;;;;6.50;3.50;;;29.30;1.00;;;;;;6328104;22;20391;-77
2022/03/08 12:47:58;;;;;;;4.73;3.17;;;28.80;1.00;;;;;;6326403;22;20896;-78
2022/03/08 12:50:29;;;;;;;4.10;3.30;;;28.80;1.00;;;;;;6327516;22;20425;-79
2022/03/08 12:52:58;;;;;;;4.20;2.53;;;28.90;1.00;;;;;;6326567;22;20335;-79
2022/03/08 12:55:28;;;;;;;5.90;3.03;;;29.10;1.00;;;;;;6314935;22;20379;-79
2022/03/08 12:57:57;;;;;;;3.00;1.90;;;29.10;1.00;;;;;;6312143;22;20383;-79
2022/03/08 13:00:43;;;;;;;4.20;3.07;;;28.90;1.00;;;;;;6310391;22;21286;-78
2022/03/08 13:03:14;;;;;;;5.20;4.10;;;28.90;1.00;;;;;;6306076;22;20508;-78
2022/03/08 13:05:45;;;;;;;4.13;2.70;;;29.20;1.00;;;;;;6305535;22;20446;-79
2022/03/08 13:08:16;;;;;;;3.60;2.93;;;29.10;1.00;;;;;;6305505;22;20949;-79
2022/03/08 13:10:46;;;;;;;4.33;3.07;;;28.20;1.00;;;;;;6309756;22;20371;-79
2022/03/08 13:13:13;;;;;;;3.47;2.33;;;27.20;1.00;;;;;;6301490;22;21024;-79
2022/03/08 13:15:40;;;;;;;4.03;3.17;;;26.30;1.00;;;;;;6303205;22;20399;-77
2022/03/08 13:18:08;;;;;;;4.10;2.60;;;26.10;1.00;;;;;;6303063;22;20493;-78
2022/03/08 13:20:38;;;;;;;3.50;2.67;;;26.30;1.00;;;;;;6307076;22;20924;-81
2022/03/08 13:23:10;;;;;;;5.37;2.40;;;26.30;1.00;;;;;;6305892;22;20429;-77
2022/03/08 13:25:38;;;;;;;4.13;2.50;;;25.40;1.00;;;;;;6304698;22;21150;-77
2022/03/08 13:28:11;;;;;;;3.13;2.50;;;24.70;1.00;;;;;;6303041;22;20383;-78
2022/03/08 13:30:39;;;;;;;4.33;2.87;;;24.40;1.00;;;;;;6305111;22;20450;-77
2022/03/08 13:33:23;;;;;;;3.80;2.87;;;24.20;1.00;;;;;;6300689;22;20429;-76
2022/03/08 13:35:54;;;;;;;4.33;3.03;;;23.60;1.00;;;;;;6300224;22;20553;-77
2022/03/08 13:38:24;;;;;;;4.37;2.90;;;23.10;1.00;;;;;;6309531;22;20856;-79
2022/03/08 13:40:51;;;;;;;3.57;2.50;;;21.80;1.00;;;;;;6299641;22;20403;-74
2022/03/08 13:43:20;;;;;;;4.33;2.63;;;20.20;1.00;;;;;;6302499;22;20845;-78
2022/03/08 13:45:47;;;;;;;3.60;2.30;;;18.40;1.00;;;;;;6307842;22;20419;-80
2022/03/08 13:48:21;;;;;;;4.40;2.20;;;17.10;1.00;;;;;;6301031;22;20399;-77
2022/03/08 13:50:49;;;;;;;3.87;2.83;;;16.00;1.00;;;;;;6304683;22;20521;-79
2022/03/08 13:53:16;;;;;;;2.80;2.20;;;15.20;1.00;;;;;;6305390;22;20445;-79
2022/03/08 13:55:48;;;;;;;4.20;3.20;;;14.70;1.00;;;;;;6301974;22;20407;-78
2022/03/08 13:58:20;;;;;;;4.53;2.93;;;14.20;1.00;;;;;;6304724;22;20440;-79
2022/03/08 14:00:49;;;;;;;3.50;2.40;;;13.90;1.00;;;;;;6305880;22;20474;-79
2022/03/08 14:03:17;;;;;;;4.97;2.97;;;13.50;1.00;;;;;;6304680;22;20415;-79
2022/03/08 14:05:58;;;;;;;4.90;2.47;;;13.30;1.00;;;;;;6309568;22;20437;-79
2022/03/08 14:08:33;;;;;;;5.13;3.30;;;13.20;1.00;;;;;;6308329;22;20456;-79
2022/03/08 14:11:02;;;;;;;5.17;4.13;;;13.00;1.00;;;;;;6302178;22;20410;-78
2022/03/08 14:13:32;;;;;;;4.17;2.63;;;13.00;1.00;;;;;;6307623;22;20406;-78
2022/03/08 14:16:02;;;;;;;4.50;2.93;;;13.00;1.00;;;;;;6307440;22;20563;-78
2022/03/08 14:18:29;;;;;;;10.97;5.57;;;13.00;1.00;;;;;;6307598;22;20916;-77
2022/03/08 14:21:03;;;;;;;4.63;3.17;;;12.90;1.00;;;;;;6305452;22;20403;-79
2022/03/08 14:23:41;;;;;;;7.33;6.50;;;12.80;1.00;;;;;;6306000;22;20417;-79
2022/03/08 14:26:09;;;;;;;3.90;2.47;;;12.70;1.00;;;;;;6307377;22;20410;-79
2022/03/08 14:28:50;;;;;;;4.00;3.60;;;12.60;1.00;;;;;;6308161;22;20387;-77
2022/03/08 14:31:24;;;;;;;7.00;3.20;;;12.50;1.00;;;;;;6305364;22;20422;-79
2022/03/08 14:34:02;;;;;;;4.67;2.23;;;12.40;1.00;;;;;;6306963;22;20427;-79
2022/03/08 14:36:38;;;;;;;4.80;3.30;;;12.40;1.00;;;;;;6309959;22;20406;-78
2022/03/08 14:39:29;;;;;;;4.37;2.73;;;12.20;1.00;;;;;;6315429;22;20358;-77
2022/03/08 14:42:02;;;;;;;4.30;2.60;;;12.20;1.00;;;;;;6324084;22;20381;-79
2022/03/08 14:44:30;;;;;;;5.60;2.97;;;12.20;1.00;;;;;;6311746;22;21079;-78
2022/03/08 14:46:57;;;;;;;7.07;5.83;;;12.10;1.00;;;;;;6311525;22;20431;-78
2022/03/08 14:49:24;;;;;;;3.87;2.13;;;12.10;1.00;;;;;;6312193;22;20371;-78
2022/03/08 14:51:52;;;;;;;4.10;3.70;;;12.10;1.00;;;;;;6312458;22;20414;-78
2022/03/08 14:54:20;;;;;;;2.90;2.60;;;12.10;1.00;;;;;;6310723;22;20401;-79
2022/03/08 14:56:47;;;;;;;3.53;2.40;;;12.00;1.00;;;;;;6309591;22;20410;-79
2022/03/08 14:59:16;;;;;;;4.60;1.80;;;12.00;1.00;;;;;;6308641;22;20406;-79
2022/03/08 15:01:43;;;;;;;7.17;3.87;;;11.90;1.00;;;;;;6308217;22;21638;-77
2022/03/08 15:04:09;;;;;;;2.53;1.80;;;11.80;1.00;;;;;;6307783;22;20391;-79
2022/03/08 15:06:37;;;;;;;3.00;2.00;;;11.80;1.00;;;;;;6306738;22;20401;-77
2022/03/08 15:09:07;;;;;;;3.23;2.80;;;11.70;1.00;;;;;;6305824;22;20496;-78
2022/03/08 15:11:34;;;;;;;41.47;32.33;;;11.70;1.00;;;;;;6308350;22;20470;-79
2022/03/08 15:14:01;;;;;;;4.40;2.77;;;11.60;1.00;;;;;;6308343;22;20418;-79
2022/03/08 15:16:28;;;;;;;3.40;2.23;;;11.60;1.00;;;;;;6310986;22;20395;-78
2022/03/08 15:18:55;;;;;;;4.20;2.40;;;11.50;1.00;;;;;;6306800;22;20379;-78
2022/03/08 15:21:23;;;;;;;11.03;6.70;;;11.60;1.00;;;;;;6308833;22;20431;-78
2022/03/08 15:23:50;;;;;;;4.33;3.10;;;11.50;1.00;;;;;;6309897;22;20414;-77
2022/03/08 15:26:20;;;;;;;8.90;3.00;;;11.40;1.00;;;;;;6309698;22;20426;-78
2022/03/08 15:28:47;;;;;;;4.70;3.60;;;11.40;1.00;;;;;;6309036;22;20366;-77
2022/03/08 15:31:15;;;;;;;3.23;1.70;;;11.40;1.00;;;;;;6311041;22;20970;-78
2022/03/08 15:33:42;;;;;;;6.33;2.60;;;11.40;1.00;;;;;;6307080;22;20407;-78
2022/03/08 15:36:09;;;;;;;3.80;3.00;;;11.40;1.00;;;;;;6311100;22;21222;-79
2022/03/08 15:38:38;;;;;;;4.87;2.90;;;11.40;1.00;;;;;;6308354;22;20393;-79
2022/03/08 15:41:05;;;;;;;4.50;3.27;;;11.30;1.00;;;;;;6310610;22;21195;-78
2022/03/08 15:43:34;;;;;;;2.83;2.17;;;11.20;1.00;;;;;;6307186;22;20803;-78
2022/03/08 15:46:01;;;;;;;3.87;2.83;;;11.10;1.00;;;;;;6309439;22;20900;-78
2022/03/08 15:48:28;;;;;;;3.50;2.50;;;11.10;1.00;;;;;;6322204;22;20403;-77
2022/03/08 15:50:54;;;;;;;4.03;2.40;;;11.00;1.00;;;;;;6314220;22;20469;-77
2022/03/08 15:53:21;;;;;;;4.80;2.63;;;11.00;1.00;;;;;;6311922;22;20741;-77
2022/03/08 15:55:49;;;;;;;4.13;2.53;;;11.00;1.00;;;;;;6309282;22;21006;-79
2022/03/08 15:58:16;;;;;;;3.53;2.63;;;11.00;1.00;;;;;;6309491;22;20394;-77
2022/03/08 16:00:46;;;;;;;4.90;3.47;;;11.00;1.00;;;;;;6308652;22;20370;-78
2022/03/08 16:03:12;;;;;;;5.77;4.70;;;11.00;1.00;;;;;;6307114;22;20469;-77
2022/03/08 16:05:40;;;;;;;5.70;2.80;;;10.90;1.00;;;;;;6309119;22;20413;-78
2022/03/08 16:08:07;;;;;;;4.30;2.87;;;10.80;1.00;;;;;;6308909;22;20470;-78
2022/03/08 16:10:33;;;;;;;4.70;3.03;;;10.70;1.00;;;;;;6309098;22;20399;-78
2022/03/08 16:13:01;;;;;;;4.50;2.90;;;10.60;1.00;;;;;;6308533;22;20410;-78
2022/03/08 16:15:28;;;;;;;8.37;3.13;;;10.60;1.00;;;;;;6310696;22;20411;-77
2022/03/08 16:17:56;;;;;;;5.13;3.63;;;10.60;1.00;;;;;;6311740;22;20390;-78
2022/03/08 16:20:22;;;;;;;5.33;3.10;;;10.60;1.00;;;;;;6310602;22;20359;-77
2022/03/08 16:22:49;;;;;;;4.70;4.20;;;10.60;1.00;;;;;;6325841;22;20355;-77
2022/03/08 16:25:16;;;;;;;3.53;3.03;;;10.60;1.00;;;;;;6332351;22;20374;-77
2022/03/08 16:27:43;;;;;;;5.63;4.27;;;10.50;1.00;;;;;;6332919;22;20634;-77
2022/03/08 16:30:11;;;;;;;5.57;3.30;;;10.50;1.00;;;;;;6332697;22;20406;-78
2022/03/08 16:32:38;;;;;;;3.53;2.67;;;10.50;1.00;;;;;;6336761;22;20793;-77
2022/03/08 16:35:07;;;;;;;7.40;3.30;;;10.40;1.00;;;;;;6331433;22;20422;-77
2022/03/08 16:37:34;;;;;;;6.57;4.17;;;10.40;1.00;;;;;;6329686;22;20860;-79
2022/03/08 16:40:00;;;;;;;7.73;4.30;;;10.30;1.00;;;;;;6315074;22;20442;-78
2022/03/08 16:42:27;;;;;;;6.77;4.57;;;10.20;1.00;;;;;;6315508;22;20407;-79
2022/03/08 16:44:56;;;;;;;8.03;4.27;;;10.20;1.00;;;;;;6314672;22;21081;-78
2022/03/08 16:47:22;;;;;;;5.20;3.63;;;10.10;1.00;;;;;;6313265;22;20387;-78
2022/03/08 16:49:49;;;;;;;10.93;5.90;;;10.10;1.00;;;;;;6311088;22;20481;-79
2022/03/08 16:52:17;;;;;;;8.13;5.73;;;10.00;1.00;;;;;;6313697;22;20504;-78
2022/03/08 16:54:45;;;;;;;9.47;8.57;;;9.90;1.00;;;;;;6310755;22;20416;-78
2022/03/08 16:57:13;;;;;;;10.03;7.20;;;9.90;1.00;;;;;;6313304;22;20401;-78
2022/03/08 16:59:40;;;;;;;7.83;5.00;;;9.80;1.00;;;;;;6312536;22;20403;-79
2022/03/08 17:02:07;;;;;;;10.53;4.93;;;9.70;1.00;;;;;;6315174;22;20401;-77
2022/03/08 17:04:34;;;;;;;7.03;6.33;;;9.60;1.00;;;;;;6312545;22;20593;-78
2022/03/08 17:07:01;;;;;;;8.67;6.40;;;9.50;1.00;;;;;;6328014;22;20376;-77
2022/03/08 17:09:29;;;;;;;8.20;4.70;;;9.40;1.00;;;;;;6336259;22;20376;-77
2022/03/08 17:11:56;;;;;;;8.67;7.50;;;9.40;1.00;;;;;;6338744;22;20416;-77
2022/03/08 17:14:23;;;;;;;12.20;11.30;;;9.30;1.00;;;;;;6337366;22;20359;-77
2022/03/08 17:16:50;;;;;;;9.13;6.33;;;9.20;1.00;;;;;;6339511;22;20367;-77
2022/03/08 17:19:18;;;;;;;5.93;4.50;;;9.10;1.00;;;;;;6338858;22;20435;-77
2022/03/08 17:21:45;;;;;;;6.60;3.80;;;9.10;1.00;;;;;;6338275;22;20402;-77
2022/03/08 17:24:12;;;;;;;4.07;3.63;;;9.00;1.00;;;;;;6339075;22;20367;-77
2022/03/08 17:26:40;;;;;;;9.43;4.80;;;8.90;1.00;;;;;;6339163;22;20288;-77
2022/03/08 17:29:09;;;;;;;5.20;4.20;;;8.90;1.00;;;;;;6338148;22;20426;-77
2022/03/08 17:31:38;;;;;;;8.73;4.90;;;8.90;1.00;;;;;;6338416;22;20355;-78
2022/03/08 17:34:05;;;;;;;6.73;4.80;;;8.80;1.00;;;;;;6340211;22;20371;-77
2022/03/08 17:36:33;;;;;;;7.93;4.30;;;8.80;1.00;;;;;;6335847;22;20359;-77
2022/03/08 17:39:00;;;;;;;7.40;5.47;;;8.70;1.00;;;;;;6335023;22;20207;-78
2022/03/08 17:41:29;;;;;;;8.40;6.50;;;8.60;1.00;;;;;;6336550;22;20351;-76
2022/03/08 17:43:59;;;;;;;10.35;6.00;;;8.50;1.00;;;;;;6335878;22;20363;-77
2022/03/08 17:46:28;;;;;;;8.95;6.38;;;8.50;1.00;;;;;;6331038;22;20192;-75
2022/03/08 17:48:55;;;;;;;13.23;8.23;;;8.50;1.00;;;;;;6333654;22;20263;-77
2022/03/08 17:51:22;;;;;;;12.88;7.07;;;8.40;1.00;;;;;;6336800;22;20362;-77
2022/03/08 17:53:50;;;;;;;12.77;7.00;;;8.30;1.00;;;;;;6336023;22;20331;-77
2022/03/08 17:56:17;;;;;;;8.90;5.38;;;8.30;1.00;;;;;;6333959;22;20395;-77
2022/03/08 17:58:46;;;;;;;13.32;7.38;;;8.20;1.00;;;;;;6335083;22;20283;-76
2022/03/08 18:01:15;;;;;;;11.10;7.67;;;8.20;1.00;;;;;;6334693;22;20184;-75
2022/03/08 18:03:41;;;;;;;9.43;7.03;;;8.10;1.00;;;;;;6337073;22;20356;-75
2022/03/08 18:06:08;;;;;;;11.13;8.10;;;8.10;1.00;;;;;;6330577;22;20385;-73
2022/03/08 18:08:35;;;;;;;11.13;7.50;;;8.10;1.00;;;;;;6330954;22;20191;-73
2022/03/08 18:11:02;;;;;;;13.95;7.32;;;8.00;1.00;;;;;;6331274;22;20514;-73
2022/03/08 18:13:29;;;;;;;11.77;8.00;;;8.00;1.00;;;;;;6332398;22;20183;-74
2022/03/08 18:16:26;;;;;;;13.38;8.73;;;8.00;1.00;;;;;;6330653;22;20180;-73
2022/03/08 18:18:53;;;;;;;13.00;8.65;;;7.90;1.00;;;;;;6332202;22;20196;-72
2022/03/08 18:21:20;;;;;;;12.60;10.50;;;7.80;1.00;;;;;;6327273;22;20207;-73
2022/03/08 18:23:47;;;;;;;10.25;8.27;;;7.80;1.00;;;;;;6328502;22;20503;-74
2022/03/08 18:26:14;;;;;;;13.80;9.15;;;7.70;1.00;;;;;;6310014;22;20967;-75
2022/03/08 18:28:40;;;;;;;13.32;9.27;;;7.70;1.00;;;;;;6303148;22;20192;-73
2022/03/08 18:31:07;;;;;;;11.17;9.30;;;7.60;1.00;;;;;;6300466;22;20182;-74
2022/03/08 18:33:35;;;;;;;14.30;10.13;;;7.60;1.00;;;;;;6303832;22;20407;-74
2022/03/08 18:36:02;;;;;;;16.75;10.02;;;7.60;1.00;;;;;;6303657;22;21033;-75
2022/03/08 18:38:29;;;;;;;15.50;10.82;;;7.50;1.00;;;;;;6302325;22;20192;-76
2022/03/08 18:40:56;;;;;;;13.43;9.18;;;7.40;1.00;;;;;;6303295;22;20258;-76
2022/03/08 18:43:23;;;;;;;15.38;10.43;;;7.30;1.00;;;;;;6301066;22;20188;-75
2022/03/08 18:45:50;;;;;;;16.52;10.02;;;7.30;1.00;;;;;;6306705;22;20207;-76
2022/03/08 18:48:16;;;;;;;20.17;12.55;;;7.20;1.00;;;;;;6297641;22;20188;-75
2022/03/08 18:50:44;;;;;;;15.65;9.43;;;7.20;1.00;;;;;;6297159;22;20191;-76
2022/03/08 18:53:11;;;;;;;23.85;12.40;;;7.10;1.00;;;;;;6304341;22;20531;-76
2022/03/08 18:55:39;;;;;;;18.05;9.55;;;7.00;1.00;;;;;;6299964;22;20207;-77
2022/03/08 18:58:06;;;;;;;13.85;10.45;;;6.90;1.00;;;;;;6302859;22;20200;-76
2022/03/08 19:00:32;;;;;;;13.73;9.07;;;6.80;1.00;;;;;;6302117;22;20203;-76
2022/03/08 19:03:02;;;;;;;15.25;11.05;;;6.70;1.00;;;;;;6300592;22;20187;-76
2022/03/08 19:05:29;;;;;;;12.75;9.95;;;6.60;1.00;;;;;;6304789;22;20196;-76
2022/03/08 19:07:57;;;;;;;11.68;9.93;;;6.40;1.00;;;;;;6297182;22;20978;-75
2022/03/08 19:10:23;;;;;;;17.73;11.27;;;6.40;1.00;;;;;;6298744;22;20180;-76
2022/03/08 19:12:50;;;;;;;12.50;9.85;;;6.30;1.00;;;;;;6301764;22;20198;-76
2022/03/08 19:15:17;;;;;;;12.55;11.32;;;6.30;1.00;;;;;;6300475;22;21057;-77
2022/03/08 19:17:43;;;;;;;16.15;12.60;;;6.30;1.00;;;;;;6301484;22;20297;-76
2022/03/08 19:20:11;;;;;;;15.45;11.68;;;6.30;1.00;;;;;;6299463;22;20235;-77
2022/03/08 19:22:38;;;;;;;14.15;11.65;;;6.20;1.00;;;;;;6299758;22;20192;-76
2022/03/08 19:25:07;;;;;;;16.00;12.40;;;6.20;1.00;;;;;;6303658;22;20195;-76
2022/03/08 19:27:34;;;;;;;17.23;12.60;;;6.20;1.00;;;;;;6300918;22;20194;-76
2022/03/08 19:30:01;;;;;;;13.68;10.93;;;6.10;1.00;;;;;;6297295;22;20279;-77
2022/03/08 19:32:28;;;;;;;14.88;11.25;;;6.10;1.00;;;;;;6299501;22;20274;-76
2022/03/08 19:34:54;;;;;;;18.17;12.10;;;6.00;1.00;;;;;;6299428;22;20196;-75
2022/03/08 19:37:21;;;;;;;15.70;12.43;;;5.80;1.00;;;;;;6292780;22;20207;-76
2022/03/08 19:39:48;;;;;;;15.75;12.38;;;5.80;1.00;;;;;;6298563;22;20282;-76
2022/03/08 19:42:16;;;;;;;17.13;14.02;;;5.80;1.00;;;;;;6302657;22;20196;-76
2022/03/08 19:44:44;;;;;;;19.00;15.70;;;5.90;1.00;;;;;;6297609;22;20200;-75
2022/03/08 19:47:11;;;;;;;15.55;12.25;;;5.90;1.00;;;;;;6316558;22;20245;-75
2022/03/08 19:49:38;;;;;;;16.52;11.18;;;5.90;1.00;;;;;;6311759;22;20192;-75
2022/03/08 19:52:05;;;;;;;14.73;11.73;;;5.90;1.00;;;;;;6303347;22;20214;-77
2022/03/08 19:54:32;;;;;;;16.77;13.57;;;5.80;1.00;;;;;;6298655;22;20188;-77
2022/03/08 19:56:59;;;;;;;15.00;13.07;;;5.70;1.00;;;;;;6300727;22;20200;-77
2022/03/08 19:59:28;;;;;;;16.00;12.15;;;5.60;1.00;;;;;;6296669;22;20276;-76
2022/03/08 20:01:55;;;;;;;15.55;13.13;;;5.50;1.00;;;;;;6301675;22;20192;-77
2022/03/08 20:04:24;;;;;;;13.60;11.77;;;5.50;1.00;;;;;;6296820;22;20202;-76
2022/03/08 20:06:52;;;;;;;15.07;12.25;;;5.40;1.00;;;;;;6301060;22;20184;-77
2022/03/08 20:09:20;;;;;;;15.13;10.80;;;5.30;1.00;;;;;;6299425;22;20215;-77
2022/03/08 20:11:47;;;;;;;14.45;12.55;;;5.20;1.00;;;;;;6308238;22;20242;-76
2022/03/08 20:14:13;;;;;;;15.90;12.48;;;5.10;1.00;;;;;;6312836;22;20196;-76
2022/03/08 20:16:42;;;;;;;15.07;11.95;;;5.00;1.00;;;;;;6310681;22;20207;-75
2022/03/08 20:19:09;;;;;;;13.93;11.50;;;4.90;1.00;;;;;;6309174;22;20198;-76
2022/03/08 20:21:36;;;;;;;13.35;11.93;;;4.90;1.00;;;;;;6308593;22;20188;-77
2022/03/08 20:24:04;;;;;;;14.55;11.40;;;4.90;1.00;;;;;;6317325;22;20247;-77
2022/03/08 20:26:31;;;;;;;21.85;13.60;;;4.90;1.00;;;;;;6320676;22;20188;-78
2022/03/08 20:29:00;;;;;;;21.70;17.90;;;4.90;1.00;;;;;;6313370;22;20692;-77
2022/03/08 20:31:27;;;;;;;26.05;21.30;;;4.90;1.00;;;;;;6302214;22;20194;-77
2022/03/08 20:33:55;;;;;;;18.67;15.00;;;4.90;1.00;;;;;;6301633;22;20199;-77
2022/03/08 20:36:22;;;;;;;14.35;12.75;;;5.00;1.00;;;;;;6296131;22;20207;-77
2022/03/08 20:38:49;;;;;;;14.52;11.90;;;5.00;1.00;;;;;;6298064;22;20273;-77
2022/03/08 20:41:15;;;;;;;15.20;13.18;;;4.90;1.00;;;;;;6297819;22;21267;-77
2022/03/08 20:43:42;;;;;;;15.20;13.35;;;4.90;1.00;;;;;;6299634;22;20183;-77
2022/03/08 20:46:09;;;;;;;20.88;17.08;;;4.90;1.00;;;;;;6299419;22;20276;-77
2022/03/08 20:48:36;;;;;;;24.48;21.80;;;4.90;1.00;;;;;;6301454;22;20772;-78
2022/03/08 20:51:04;;;;;;;21.20;18.20;;;4.90;1.00;;;;;;6301939;22;20202;-76
2022/03/08 20:53:33;;;;;;;23.10;17.83;;;4.90;1.00;;;;;;6301267;22;20210;-77
2022/03/08 20:55:59;;;;;;;20.40;17.92;;;4.90;1.00;;;;;;6296173;22;20199;-77
2022/03/08 20:58:26;;;;;;;21.17;18.13;;;4.90;1.00;;;;;;6299867;22;20922;-77
2022/03/08 21:00:56;;;;;;;21.40;18.88;;;4.90;1.00;;;;;;6305229;22;20194;-78
2022/03/08 21:03:22;;;;;;;25.33;21.02;;;4.90;1.00;;;;;;6308571;22;20207;-78
2022/03/08 21:05:49;;;;;;;36.75;26.40;;;4.90;1.00;;;;;;6303117;22;20531;-78
2022/03/08 21:08:18;;;;;;;25.40;20.95;;;4.80;1.00;;;;;;6301702;22;20236;-78
2022/03/08 21:10:45;;;;;;;23.08;18.77;;;4.80;1.00;;;;;;6299858;22;20240;-78
2022/03/08 21:13:12;;;;;;;25.70;19.85;;;4.70;1.00;;;;;;6300083;22;20198;-78
2022/03/08 21:15:39;;;;;;;24.80;18.50;;;4.50;1.00;;;;;;6301585;22;20239;-78
2022/03/08 21:18:06;;;;;;;25.58;19.05;;;4.50;1.00;;;;;;6301102;22;20304;-77
2022/03/08 21:20:32;;;;;;;23.67;21.10;;;4.40;1.00;;;;;;6299710;22;20927;-77
2022/03/08 21:22:59;;;;;;;25.58;22.20;;;4.30;1.00;;;;;;6299662;22;20676;-78
2022/03/08 21:25:31;;;;;;;25.38;21.95;;;4.20;1.00;;;;;;6297964;22;20799;-78
2022/03/08 21:27:58;;;;;;;30.42;23.00;;;4.20;1.00;;;;;;6301660;22;20953;-78
2022/03/08 21:30:27;;;;;;;27.10;21.88;;;4.20;1.00;;;;;;6301204;22;20199;-78
2022/03/08 21:32:54;;;;;;;25.08;20.60;;;4.20;1.00;;;;;;6298295;22;20192;-79
2022/03/08 21:35:21;;;;;;;23.15;20.70;;;4.10;1.00;;;;;;6296637;22;20250;-85
2022/03/08 21:37:48;;;;;;;26.70;21.65;;;4.00;1.00;;;;;;6299585;22;20211;-76
2022/03/08 21:40:15;;;;;;;29.48;21.48;;;4.00;1.00;;;;;;6296258;22;20860;-76
2022/03/08 21:42:43;;;;;;;24.63;20.73;;;4.00;1.00;;;;;;6311198;22;20184;-76
2022/03/08 21:45:11;;;;;;;23.10;20.60;;;4.00;1.00;;;;;;6300431;22;20192;-75
2022/03/08 21:47:38;;;;;;;25.42;20.02;;;4.00;1.00;;;;;;6300070;22;21097;-76
2022/03/08 21:50:06;;;;;;;23.92;20.08;;;4.00;1.00;;;;;;6299533;22;20192;-76
2022/03/08 21:52:34;;;;;;;22.88;20.23;;;4.00;1.00;;;;;;6304720;22;20192;-76
2022/03/08 21:55:01;;;;;;;30.73;23.08;;;4.00;1.00;;;;;;6304125;22;20692;-76
2022/03/08 21:57:28;;;;;;;27.17;20.75;;;4.00;1.00;;;;;;6306990;22;20203;-77
2022/03/08 21:59:56;;;;;;;24.95;20.45;;;4.00;1.00;;;;;;6315402;22;20167;-74
2022/03/08 22:02:23;;;;;;;30.60;22.85;;;4.00;1.00;;;;;;6328583;22;20200;-75
2022/03/08 22:04:52;;;;;;;26.85;20.20;;;4.00;1.00;;;;;;6330236;22;20195;-75
2022/03/08 22:07:18;;;;;;;24.70;20.25;;;3.90;1.00;;;;;;6322339;22;20735;-76
2022/03/08 22:09:45;;;;;;;25.92;22.10;;;3.80;1.00;;;;;;6302517;22;20691;-76
2022/03/08 22:12:12;;;;;;;50.40;38.35;;;3.70;1.00;;;;;;6301891;22;20188;-76